Time;durP1;ratioP1;P1;durP2;ratioP2;P2;SDS_P1;SDS_P2;PMS_P1;PMS_P2;Temp;Humidity;BMP_temperature;BMP_pressure;BME280_temperature;BME280_humidity;BME280_pressure;Samples;Min_cycle;Max_cycle;Signal;HPM_P1;HPM_P2
2022/09/14 00:00:11;;;;;;;;;;;18.40;99.90;;;;;;5048621;28;19929;-70
2022/09/14 00:02:39;;;;;;;;;;;18.50;99.90;;;;;;5066017;28;20023;-69
2022/09/14 00:05:06;;;;;;;;;;;18.50;99.90;;;;;;5044352;28;19978;-69
2022/09/14 00:07:33;;;;;;;;;;;18.50;99.90;;;;;;5047784;28;19932;-69
2022/09/14 00:10:00;;;;;;;;;;;18.60;99.90;;;;;;5046334;28;20288;-69
2022/09/14 00:12:27;;;;;;;;;;;18.60;99.90;;;;;;5049149;28;19978;-70
2022/09/14 00:14:54;;;;;;;;;;;18.60;99.90;;;;;;5079718;28;19994;-70
2022/09/14 00:17:20;;;;;;;;;;;18.70;99.90;;;;;;5053139;28;19932;-68
2022/09/14 00:19:49;;;;;;;;;;;18.70;99.90;;;;;;5079369;28;19924;-67
2022/09/14 00:22:15;;;;;;;;;;;18.80;99.90;;;;;;5050556;28;19967;-67
2022/09/14 00:24:42;;;;;;;;;;;18.80;99.90;;;;;;5042469;28;19971;-68
2022/09/14 00:27:09;;;;;;;;;;;18.80;99.90;;;;;;5044856;28;19979;-67
2022/09/14 00:29:36;;;;;;;;;;;18.80;99.90;;;;;;5047412;28;19931;-67
2022/09/14 00:32:03;;;;;;;;;;;18.80;99.90;;;;;;5077516;28;19929;-68
2022/09/14 00:34:30;;;;;;;;;;;18.80;99.90;;;;;;5043860;28;19924;-67
2022/09/14 00:36:58;;;;;;;;;;;18.70;99.90;;;;;;5045445;28;19993;-68
2022/09/14 00:39:26;;;;;;;;;;;18.60;99.90;;;;;;5042834;28;19943;-68
2022/09/14 00:41:54;;;;;;;;;;;18.50;99.90;;;;;;5045923;28;20306;-68
2022/09/14 00:44:39;;;;;;;;;;;18.40;99.90;;;;;;5073558;28;19925;-68
2022/09/14 00:47:06;;;;;;;;;;;18.40;99.90;;;;;;5063681;28;20280;-68
2022/09/14 00:49:34;;;;;;;;;;;18.30;99.90;;;;;;5044248;28;19924;-68
2022/09/14 00:52:07;;;;;;;;;;;18.30;99.90;;;;;;5051827;28;19933;-69
2022/09/14 00:54:34;;;;;;;;;;;18.30;99.90;;;;;;5082614;28;20015;-68
2022/09/14 00:57:02;;;;;;;;;;;18.20;99.90;;;;;;5046097;28;20412;-69
2022/09/14 00:59:31;;;;;;;;;;;18.20;99.90;;;;;;5072296;28;20305;-68
2022/09/14 01:01:57;;;;;;;;;;;18.10;99.90;;;;;;5050300;28;19974;-68
2022/09/14 01:04:25;;;;;;;;;;;18.20;99.90;;;;;;5053275;28;20355;-68
2022/09/14 01:06:55;;;;;;;;;;;18.10;99.90;;;;;;5053647;28;19968;-68
2022/09/14 01:09:28;;;;;;;;;;;18.00;99.90;;;;;;5075621;28;19929;-68
2022/09/14 01:12:01;;;;;;;;;;;18.00;99.90;;;;;;5054356;28;20007;-68
2022/09/14 01:14:31;;;;;;;;;;;18.00;99.90;;;;;;5069928;28;19971;-67
2022/09/14 01:17:01;;;;;;;;;;;18.00;99.90;;;;;;5054330;28;19978;-69
2022/09/14 01:19:33;;;;;;;;;;;18.00;99.90;;;;;;5050445;28;19925;-68
2022/09/14 01:22:06;;;;;;;;;;;18.00;99.90;;;;;;5054575;28;19925;-69
2022/09/14 01:24:40;;;;;;;;;;;18.00;99.90;;;;;;5086258;28;19924;-68
2022/09/14 01:27:19;;;;;;;;;;;18.00;99.90;;;;;;5052842;28;19929;-68
2022/09/14 01:29:49;;;;;;;;;;;17.90;99.90;;;;;;5053384;28;19928;-69
2022/09/14 01:32:18;;;;;;;;;;;17.90;99.90;;;;;;5049463;28;19929;-68
2022/09/14 01:34:46;;;;;;;;;;;17.90;99.90;;;;;;5048873;28;20460;-68
2022/09/14 01:37:14;;;;;;;;;;;17.90;99.90;;;;;;5050665;28;19935;-67
2022/09/14 01:39:43;;;;;;;;;;;17.80;99.90;;;;;;5050713;28;20418;-68
2022/09/14 01:42:10;;;;;;;;;;;17.80;99.90;;;;;;5048992;28;19929;-68
2022/09/14 01:44:40;;;;;;;;;;;17.70;99.90;;;;;;5052222;28;19931;-68
2022/09/14 01:47:11;;;;;;;;;;;17.70;99.90;;;;;;5048299;28;19924;-69
2022/09/14 01:49:40;;;;;;;;;;;17.80;99.90;;;;;;5076391;28;19929;-68
2022/09/14 01:52:10;;;;;;;;;;;17.80;99.90;;;;;;5051541;28;20586;-69
2022/09/14 01:54:38;;;;;;;;;;;17.80;99.90;;;;;;5045663;28;19925;-68
2022/09/14 01:57:09;;;;;;;;;;;17.80;99.90;;;;;;5073223;28;19970;-69
2022/09/14 01:59:37;;;;;;;;;;;17.80;99.90;;;;;;5045541;28;19932;-69
2022/09/14 02:02:09;;;;;;;;;;;17.80;99.90;;;;;;5051487;28;19924;-68
2022/09/14 02:04:41;;;;;;;;;;;17.80;99.90;;;;;;5077262;28;19931;-68
2022/09/14 02:07:08;;;;;;;;;;;17.80;99.90;;;;;;5051502;28;19924;-69
2022/09/14 02:09:34;;;;;;;;;;;17.90;99.90;;;;;;5046850;28;19924;-69
2022/09/14 02:12:01;;;;;;;;;;;17.90;99.90;;;;;;5048491;28;19929;-67
2022/09/14 02:14:28;;;;;;;;;;;17.90;99.90;;;;;;5052189;28;20345;-68
2022/09/14 02:16:55;;;;;;;;;;;17.90;99.90;;;;;;5074086;28;20375;-68
2022/09/14 02:19:25;;;;;;;;;;;17.80;99.90;;;;;;5049334;28;19929;-68
2022/09/14 02:21:51;;;;;;;;;;;17.80;99.90;;;;;;5047904;28;19925;-68
2022/09/14 02:24:18;;;;;;;;;;;17.80;99.90;;;;;;5047457;28;19929;-68
2022/09/14 02:26:47;;;;;;;;;;;17.80;99.90;;;;;;5046603;28;19925;-69
2022/09/14 02:29:13;;;;;;;;;;;17.80;99.90;;;;;;5047508;28;19928;-68
2022/09/14 02:31:46;;;;;;;;;;;17.80;99.90;;;;;;5047641;28;20390;-69
2022/09/14 02:34:17;;;;;;;;;;;17.70;99.90;;;;;;5078720;28;20364;-69
2022/09/14 02:36:48;;;;;;;;;;;17.70;99.90;;;;;;5079887;28;19928;-68
2022/09/14 02:39:21;;;;;;;;;;;17.60;99.90;;;;;;5050783;28;19931;-68
2022/09/14 02:41:50;;;;;;;;;;;17.50;99.90;;;;;;5051138;28;19924;-68
2022/09/14 02:44:19;;;;;;;;;;;17.40;99.90;;;;;;5050897;28;19982;-68
2022/09/14 02:46:48;;;;;;;;;;;17.40;99.90;;;;;;5049501;28;20336;-68
2022/09/14 02:49:18;;;;;;;;;;;17.30;99.90;;;;;;5069914;28;20387;-67
2022/09/14 02:51:49;;;;;;;;;;;17.30;99.90;;;;;;5047434;28;20406;-68
2022/09/14 02:54:18;;;;;;;;;;;17.30;99.90;;;;;;5043042;28;19932;-68
2022/09/14 02:56:45;;;;;;;;;;;17.30;99.90;;;;;;5081860;28;19924;-68
2022/09/14 02:59:12;;;;;;;;;;;17.20;99.90;;;;;;5055117;28;19935;-68
2022/09/14 03:01:39;;;;;;;;;;;17.20;99.90;;;;;;5051437;28;20365;-69
2022/09/14 03:04:06;;;;;;;;;;;17.20;99.90;;;;;;5054584;28;19924;-68
2022/09/14 03:06:33;;;;;;;;;;;17.20;99.90;;;;;;5053086;28;19929;-68
2022/09/14 03:08:59;;;;;;;;;;;17.20;99.90;;;;;;5081502;28;19932;-68
2022/09/14 03:11:28;;;;;;;;;;;17.10;99.90;;;;;;5051823;28;19924;-67
2022/09/14 03:13:54;;;;;;;;;;;17.10;99.90;;;;;;5048420;28;19977;-68
2022/09/14 03:16:21;;;;;;;;;;;17.10;99.90;;;;;;5056732;28;19966;-68
2022/09/14 03:18:48;;;;;;;;;;;17.10;99.90;;;;;;5081784;28;20344;-68
2022/09/14 03:21:16;;;;;;;;;;;17.10;99.90;;;;;;5049285;28;19928;-68
2022/09/14 03:23:43;;;;;;;;;;;17.00;99.90;;;;;;5048170;28;19928;-68
2022/09/14 03:26:11;;;;;;;;;;;17.00;99.90;;;;;;5054976;28;20345;-68
2022/09/14 03:28:40;;;;;;;;;;;17.00;99.90;;;;;;5056305;28;19924;-68
2022/09/14 03:31:08;;;;;;;;;;;17.00;99.90;;;;;;5081325;28;19977;-69
2022/09/14 03:33:35;;;;;;;;;;;16.90;99.90;;;;;;5049895;28;19929;-68
2022/09/14 03:36:09;;;;;;;;;;;16.90;99.90;;;;;;5081074;28;19932;-68
2022/09/14 03:38:36;;;;;;;;;;;16.90;99.90;;;;;;5056284;28;19924;-69
2022/09/14 03:41:07;;;;;;;;;;;16.90;99.90;;;;;;5051058;28;19928;-68
2022/09/14 03:43:34;;;;;;;;;;;16.90;99.90;;;;;;5046952;28;19956;-69
2022/09/14 03:46:06;;;;;;;;;;;16.90;99.90;;;;;;5053411;28;19924;-67
2022/09/14 03:48:32;;;;;;;;;;;16.90;99.90;;;;;;5055736;28;19928;-68
2022/09/14 03:51:00;;;;;;;;;;;16.90;99.90;;;;;;5055970;28;19964;-68
2022/09/14 03:53:27;;;;;;;;;;;16.80;99.90;;;;;;5042739;28;19924;-68
2022/09/14 03:55:54;;;;;;;;;;;16.90;99.90;;;;;;5048073;28;20304;-68
2022/09/14 03:58:21;;;;;;;;;;;16.90;99.90;;;;;;5049713;28;20353;-68
2022/09/14 04:00:48;;;;;;;;;;;16.90;99.90;;;;;;5043082;28;20408;-68
2022/09/14 04:03:16;;;;;;;;;;;16.80;99.90;;;;;;5066772;28;19978;-68
2022/09/14 04:05:44;;;;;;;;;;;16.80;99.90;;;;;;5050198;28;19932;-68
2022/09/14 04:08:10;;;;;;;;;;;16.80;99.90;;;;;;5047237;28;19925;-69
2022/09/14 04:10:38;;;;;;;;;;;16.80;99.90;;;;;;5049576;28;19975;-68
2022/09/14 04:13:05;;;;;;;;;;;16.80;99.90;;;;;;5053348;28;19928;-68
2022/09/14 04:15:32;;;;;;;;;;;16.80;99.90;;;;;;5087800;28;20310;-68
2022/09/14 04:17:59;;;;;;;;;;;16.80;99.90;;;;;;5054780;28;20395;-67
2022/09/14 04:20:27;;;;;;;;;;;16.80;99.90;;;;;;5047647;28;19925;-68
2022/09/14 04:22:53;;;;;;;;;;;16.80;99.90;;;;;;5052818;28;19932;-68
2022/09/14 04:25:21;;;;;;;;;;;16.70;99.90;;;;;;5074052;28;19925;-68
2022/09/14 04:27:48;;;;;;;;;;;16.70;99.90;;;;;;5061593;28;19925;-67
2022/09/14 04:30:15;;;;;;;;;;;16.70;99.90;;;;;;5046795;28;19932;-67
2022/09/14 04:32:42;;;;;;;;;;;16.70;99.90;;;;;;5055461;28;19928;-67
2022/09/14 04:35:09;;;;;;;;;;;16.70;99.90;;;;;;5046125;28;19925;-68
2022/09/14 04:37:37;;;;;;;;;;;16.60;99.90;;;;;;5048736;28;19928;-69
2022/09/14 04:40:04;;;;;;;;;;;16.70;99.90;;;;;;5050652;28;19932;-68
2022/09/14 04:42:31;;;;;;;;;;;16.70;99.90;;;;;;5055049;28;19932;-68
2022/09/14 04:44:58;;;;;;;;;;;16.60;99.90;;;;;;5081025;28;19932;-68
2022/09/14 04:47:24;;;;;;;;;;;16.60;99.90;;;;;;5053314;28;19925;-68
2022/09/14 04:49:51;;;;;;;;;;;16.60;99.90;;;;;;5050010;28;20394;-68
2022/09/14 04:52:18;;;;;;;;;;;16.60;99.90;;;;;;5049571;28;20292;-68
2022/09/14 04:54:46;;;;;;;;;;;16.60;99.90;;;;;;5049350;28;20325;-68
2022/09/14 04:57:13;;;;;;;;;;;16.60;99.90;;;;;;5051668;28;19931;-68
2022/09/14 04:59:40;;;;;;;;;;;16.60;99.90;;;;;;5078558;28;19924;-67
2022/09/14 05:02:06;;;;;;;;;;;16.60;99.90;;;;;;5047842;28;19924;-68
2022/09/14 05:04:33;;;;;;;;;;;16.60;99.90;;;;;;5041187;28;19925;-68
2022/09/14 05:07:02;;;;;;;;;;;16.60;99.90;;;;;;5031703;28;20464;-68
2022/09/14 05:09:29;;;;;;;;;;;16.60;99.90;;;;;;5048761;28;19928;-67
2022/09/14 05:11:57;;;;;;;;;;;16.60;99.90;;;;;;5045557;28;19929;-66
2022/09/14 05:14:24;;;;;;;;;;;16.50;99.90;;;;;;5048916;28;20390;-66
2022/09/14 05:16:50;;;;;;;;;;;16.60;99.90;;;;;;5074962;28;19944;-66
2022/09/14 05:19:17;;;;;;;;;;;16.60;99.90;;;;;;5042714;28;19932;-66
2022/09/14 05:21:45;;;;;;;;;;;16.50;99.90;;;;;;5049334;28;19928;-66
2022/09/14 05:24:13;;;;;;;;;;;16.50;99.90;;;;;;5047569;28;19925;-66
2022/09/14 05:26:40;;;;;;;;;;;16.50;99.90;;;;;;5047090;28;19925;-67
2022/09/14 05:29:11;;;;;;;;;;;16.50;99.90;;;;;;5044158;28;19928;-67
2022/09/14 05:31:38;;;;;;;;;;;16.50;99.90;;;;;;5047245;28;19924;-67
2022/09/14 05:34:05;;;;;;;;;;;16.50;99.90;;;;;;5044803;28;19974;-67
2022/09/14 05:36:31;;;;;;;;;;;16.40;99.90;;;;;;5052420;28;19925;-67
2022/09/14 05:38:58;;;;;;;;;;;16.40;99.90;;;;;;5045661;28;19928;-67
2022/09/14 05:41:25;;;;;;;;;;;16.40;99.90;;;;;;5052104;28;20380;-67
2022/09/14 05:43:52;;;;;;;;;;;16.40;99.90;;;;;;5067962;28;19924;-67
2022/09/14 05:46:20;;;;;;;;;;;16.40;99.90;;;;;;5048424;28;19952;-67
2022/09/14 05:48:50;;;;;;;;;;;16.40;99.90;;;;;;5043186;28;19932;-67
2022/09/14 05:51:18;;;;;;;;;;;16.30;99.90;;;;;;5069196;28;19925;-67
2022/09/14 05:53:47;;;;;;;;;;;16.30;99.90;;;;;;5041283;28;19928;-67
2022/09/14 05:56:14;;;;;;;;;;;16.30;99.90;;;;;;5068116;28;19928;-66
2022/09/14 05:58:41;;;;;;;;;;;16.20;99.90;;;;;;5042956;28;20540;-67
2022/09/14 06:01:08;;;;;;;;;;;16.30;99.90;;;;;;5043962;28;19924;-67
2022/09/14 06:03:37;;;;;;;;;;;16.20;99.90;;;;;;5043751;28;20014;-67
2022/09/14 06:06:05;;;;;;;;;;;16.30;99.90;;;;;;5042339;28;19974;-67
2022/09/14 06:08:31;;;;;;;;;;;16.20;99.90;;;;;;5044806;28;19932;-67
2022/09/14 06:11:02;;;;;;;;;;;16.20;99.90;;;;;;5046000;28;19925;-67
2022/09/14 06:13:29;;;;;;;;;;;16.20;99.90;;;;;;5045116;28;19929;-67
2022/09/14 06:15:56;;;;;;;;;;;16.20;99.90;;;;;;5067840;28;19924;-67
2022/09/14 06:18:23;;;;;;;;;;;16.20;99.90;;;;;;5033023;28;19932;-67
2022/09/14 06:20:51;;;;;;;;;;;16.20;99.90;;;;;;5042099;28;19925;-66
2022/09/14 06:23:18;;;;;;;;;;;16.20;99.90;;;;;;5045703;28;20454;-66
2022/09/14 06:25:45;;;;;;;;;;;16.20;99.90;;;;;;5042609;28;20414;-67
2022/09/14 06:28:11;;;;;;;;;;;16.10;99.90;;;;;;5040482;28;19928;-67
2022/09/14 06:30:42;;;;;;;;;;;16.10;99.90;;;;;;5068116;28;20023;-67
2022/09/14 06:33:09;;;;;;;;;;;16.10;99.90;;;;;;5048876;28;20374;-67
2022/09/14 06:35:35;;;;;;;;;;;16.00;99.90;;;;;;5041584;28;19928;-67
2022/09/14 06:38:03;;;;;;;;;;;15.90;99.90;;;;;;5047678;28;19932;-67
2022/09/14 06:40:30;;;;;;;;;;;15.90;99.90;;;;;;5041873;28;19924;-67
2022/09/14 06:43:01;;;;;;;;;;;15.90;99.90;;;;;;5040200;28;19925;-67
2022/09/14 06:45:28;;;;;;;;;;;15.80;99.90;;;;;;5045113;28;19983;-67
2022/09/14 06:47:55;;;;;;;;;;;15.90;99.90;;;;;;5043485;28;19929;-67
2022/09/14 06:50:22;;;;;;;;;;;15.90;99.90;;;;;;5043251;28;19929;-67
2022/09/14 06:52:48;;;;;;;;;;;15.90;99.90;;;;;;5050423;28;19970;-67
2022/09/14 06:55:17;;;;;;;;;;;15.90;99.90;;;;;;5052345;28;19966;-67
2022/09/14 06:57:43;;;;;;;;;;;15.90;99.90;;;;;;5051175;28;19932;-67
2022/09/14 07:00:11;;;;;;;;;;;15.90;99.90;;;;;;5051423;28;19929;-67
2022/09/14 07:02:37;;;;;;;;;;;15.90;99.90;;;;;;5048274;28;19928;-67
2022/09/14 07:05:04;;;;;;;;;;;16.00;99.90;;;;;;5046079;28;19932;-67
2022/09/14 07:07:31;;;;;;;;;;;15.90;99.90;;;;;;5040269;28;19925;-67
2022/09/14 07:09:58;;;;;;;;;;;15.90;99.90;;;;;;5048122;28;19924;-67
2022/09/14 07:12:27;;;;;;;;;;;15.80;99.90;;;;;;5046881;28;19974;-67
2022/09/14 07:14:54;;;;;;;;;;;15.80;99.90;;;;;;5047997;28;19925;-67
2022/09/14 07:17:21;;;;;;;;;;;15.80;99.90;;;;;;5043516;28;19928;-67
2022/09/14 07:19:48;;;;;;;;;;;15.80;99.90;;;;;;5045149;28;19928;-67
2022/09/14 07:22:14;;;;;;;;;;;15.80;99.90;;;;;;5068164;28;19929;-67
2022/09/14 07:24:41;;;;;;;;;;;15.80;99.90;;;;;;5049112;28;20371;-67
2022/09/14 07:27:08;;;;;;;;;;;15.80;99.90;;;;;;5053011;28;20019;-67
2022/09/14 07:29:36;;;;;;;;;;;15.90;99.90;;;;;;5042950;28;19932;-67
2022/09/14 07:32:03;;;;;;;;;;;15.80;99.90;;;;;;5048261;28;19925;-67
2022/09/14 07:34:29;;;;;;;;;;;15.80;99.90;;;;;;5042710;28;19924;-67
2022/09/14 07:36:56;;;;;;;;;;;15.80;99.90;;;;;;5046402;28;19924;-67
2022/09/14 07:39:23;;;;;;;;;;;15.80;99.90;;;;;;5043620;28;20383;-67
2022/09/14 07:41:50;;;;;;;;;;;15.90;99.90;;;;;;5042249;28;19931;-67
2022/09/14 07:44:17;;;;;;;;;;;15.80;99.90;;;;;;5050261;28;20385;-67
2022/09/14 07:46:45;;;;;;;;;;;15.80;99.90;;;;;;5049090;28;19963;-68
2022/09/14 07:49:12;;;;;;;;;;;15.80;99.90;;;;;;5050373;28;19932;-67
2022/09/14 07:51:39;;;;;;;;;;;15.90;99.90;;;;;;5043502;28;20292;-67
2022/09/14 07:54:07;;;;;;;;;;;16.00;99.90;;;;;;5043053;28;19992;-67
2022/09/14 07:56:34;;;;;;;;;;;16.10;99.90;;;;;;5048559;28;20444;-68
2022/09/14 07:59:01;;;;;;;;;;;16.10;99.90;;;;;;5047920;28;20346;-67
2022/09/14 08:01:29;;;;;;;;;;;16.00;99.90;;;;;;5050516;28;19951;-71
2022/09/14 08:04:01;;;;;;;;;;;16.10;99.90;;;;;;5059877;28;19931;-68
2022/09/14 08:06:27;;;;;;;;;;;16.10;99.90;;;;;;5064884;28;19925;-67
2022/09/14 08:08:55;;;;;;;;;;;16.10;99.90;;;;;;5060626;28;19924;-67
2022/09/14 08:11:23;;;;;;;;;;;16.10;99.90;;;;;;5059980;28;20019;-67
2022/09/14 08:13:50;;;;;;;;;;;16.10;99.90;;;;;;5064486;28;19924;-67
2022/09/14 08:16:18;;;;;;;;;;;16.10;99.90;;;;;;5066114;28;19939;-67
2022/09/14 08:18:45;;;;;;;;;;;16.10;99.90;;;;;;5065391;28;19925;-67
2022/09/14 08:21:14;;;;;;;;;;;16.10;99.90;;;;;;5062155;28;19971;-67
2022/09/14 08:23:42;;;;;;;;;;;16.10;99.90;;;;;;5068250;28;20367;-67
2022/09/14 08:26:09;;;;;;;;;;;16.10;99.90;;;;;;5066923;28;19924;-67
2022/09/14 08:28:37;;;;;;;;;;;16.10;99.90;;;;;;5071339;28;19967;-67
2022/09/14 08:31:04;;;;;;;;;;;16.10;99.90;;;;;;5068179;28;19925;-67
2022/09/14 08:33:32;;;;;;;;;;;16.20;99.90;;;;;;5067890;28;19947;-67
2022/09/14 08:35:58;;;;;;;;;;;16.20;99.90;;;;;;5064065;28;20011;-67
2022/09/14 08:38:27;;;;;;;;;;;16.20;99.90;;;;;;5063758;28;20383;-67
2022/09/14 08:40:54;;;;;;;;;;;16.20;99.90;;;;;;5061726;28;19925;-67
2022/09/14 08:43:21;;;;;;;;;;;16.30;99.90;;;;;;5067239;28;19968;-67
2022/09/14 08:45:49;;;;;;;;;;;16.30;99.90;;;;;;5068714;28;19947;-67
2022/09/14 08:48:20;;;;;;;;;;;16.30;99.90;;;;;;5062777;28;19933;-68
2022/09/14 08:50:46;;;;;;;;;;;16.20;99.90;;;;;;5064980;28;19936;-67
2022/09/14 08:53:13;;;;;;;;;;;16.20;99.90;;;;;;5064030;28;19964;-67
2022/09/14 08:55:45;;;;;;;;;;;16.20;99.90;;;;;;5067214;28;20019;-68
2022/09/14 08:58:17;;;;;;;;;;;16.20;99.90;;;;;;5063401;28;19925;-67
2022/09/14 09:00:47;;;;;;;;;;;16.20;99.90;;;;;;5066920;28;20036;-67
2022/09/14 09:03:41;;;;;;;;;;;16.10;99.90;;;;;;5065089;28;20276;-67
2022/09/14 09:06:12;;;;;;;;;;;16.10;99.90;;;;;;5027262;28;20040;-67
2022/09/14 09:08:42;;;;;;;;;;;16.10;99.90;;;;;;5061063;28;19971;-67
2022/09/14 09:11:13;;;;;;;;;;;16.10;99.90;;;;;;5062202;28;20400;-67
2022/09/14 09:13:40;;;;;;;;;;;16.10;99.90;;;;;;5063996;28;19959;-68
2022/09/14 09:16:09;;;;;;;;;;;16.20;99.90;;;;;;5061120;28;20007;-68
2022/09/14 09:18:39;;;;;;;;;;;16.10;99.90;;;;;;5060761;28;20027;-68
2022/09/14 09:21:09;;;;;;;;;;;16.20;99.90;;;;;;5063148;28;20023;-67
2022/09/14 09:23:36;;;;;;;;;;;16.20;99.90;;;;;;5066850;28;19929;-68
2022/09/14 09:26:04;;;;;;;;;;;16.20;99.90;;;;;;5063124;28;19956;-68
2022/09/14 09:28:33;;;;;;;;;;;16.30;99.90;;;;;;5062455;28;20425;-68
2022/09/14 09:31:03;;;;;;;;;;;16.30;99.90;;;;;;5060974;28;19925;-67
2022/09/14 09:33:46;;;;;;;;;;;16.30;99.90;;;;;;5051617;28;19977;-68
2022/09/14 09:36:18;;;;;;;;;;;16.40;99.90;;;;;;5044123;28;19932;-67
2022/09/14 09:38:45;;;;;;;;;;;16.40;99.90;;;;;;5045474;28;19928;-67
2022/09/14 09:41:15;;;;;;;;;;;16.50;99.90;;;;;;5048852;28;19972;-68
2022/09/14 09:43:57;;;;;;;;;;;16.40;99.90;;;;;;5043336;28;19935;-67
2022/09/14 09:46:25;;;;;;;;;;;16.40;99.90;;;;;;5060998;28;19925;-67
2022/09/14 09:48:52;;;;;;;;;;;16.40;99.90;;;;;;5042504;28;19932;-72
2022/09/14 09:51:26;;;;;;;;;;;16.50;99.90;;;;;;5048830;28;19924;-67
2022/09/14 09:53:54;;;;;;;;;;;16.50;99.90;;;;;;5045522;28;19932;-67
2022/09/14 09:56:22;;;;;;;;;;;16.50;99.90;;;;;;5044073;28;19925;-68
2022/09/14 09:58:50;;;;;;;;;;;16.50;99.90;;;;;;5041848;28;19928;-67
2022/09/14 10:01:21;;;;;;;;;;;16.50;99.90;;;;;;5078044;28;20347;-68
2022/09/14 10:04:01;;;;;;;;;;;16.60;99.90;;;;;;5047648;28;19925;-68
2022/09/14 10:06:28;;;;;;;;;;;16.70;99.90;;;;;;5048642;28;19925;-67
2022/09/14 10:08:56;;;;;;;;;;;16.70;99.90;;;;;;5048611;28;19994;-68
2022/09/14 10:11:31;;;;;;;;;;;16.90;99.90;;;;;;5050424;28;19932;-67
2022/09/14 10:13:59;;;;;;;;;;;17.00;99.90;;;;;;5047035;28;19932;-68
2022/09/14 10:16:28;;;;;;;;;;;17.10;99.90;;;;;;5047110;28;19929;-67
2022/09/14 10:18:56;;;;;;;;;;;17.20;99.90;;;;;;5046963;28;19924;-68
2022/09/14 10:21:25;;;;;;;;;;;17.40;99.90;;;;;;5049859;28;19924;-68
2022/09/14 10:24:02;;;;;;;;;;;17.50;99.90;;;;;;5047456;28;19925;-68
2022/09/14 10:26:32;;;;;;;;;;;17.50;99.90;;;;;;5051038;28;20436;-68
2022/09/14 10:29:19;;;;;;;;;;;17.50;99.90;;;;;;5053496;28;19932;-67
2022/09/14 10:31:46;;;;;;;;;;;17.40;99.90;;;;;;5049954;28;20375;-68
2022/09/14 10:34:16;;;;;;;;;;;17.30;99.90;;;;;;5048841;28;19928;-68
2022/09/14 10:36:49;;;;;;;;;;;17.40;99.90;;;;;;5050078;28;19960;-67
2022/09/14 10:39:19;;;;;;;;;;;17.40;99.90;;;;;;5084677;28;20325;-67
2022/09/14 10:41:48;;;;;;;;;;;17.30;99.90;;;;;;5051891;28;19925;-68
2022/09/14 10:44:30;;;;;;;;;;;17.40;99.90;;;;;;5045289;28;19924;-67
2022/09/14 10:47:08;;;;;;;;;;;17.60;99.90;;;;;;5053691;28;19929;-67
2022/09/14 10:49:41;;;;;;;;;;;17.70;99.90;;;;;;5053054;28;19925;-68
2022/09/14 10:52:14;;;;;;;;;;;17.70;99.90;;;;;;5052036;28;19925;-67
2022/09/14 10:54:57;;;;;;;;;;;17.70;99.90;;;;;;5078534;28;19978;-67
2022/09/14 10:57:28;;;;;;;;;;;17.80;99.90;;;;;;5073470;28;19929;-67
2022/09/14 10:59:55;;;;;;;;;;;17.90;99.90;;;;;;5074594;28;19924;-67
2022/09/14 11:02:38;;;;;;;;;;;17.70;99.90;;;;;;5048088;28;19964;-67
2022/09/14 11:05:10;;;;;;;;;;;17.70;99.90;;;;;;5049257;28;20015;-67
2022/09/14 11:07:43;;;;;;;;;;;17.70;99.90;;;;;;5068411;28;19933;-67
2022/09/14 11:10:15;;;;;;;;;;;17.60;99.90;;;;;;5053571;28;19928;-67
2022/09/14 11:12:44;;;;;;;;;;;17.70;99.90;;;;;;5047503;28;19924;-67
2022/09/14 11:15:18;;;;;;;;;;;17.70;99.90;;;;;;5069452;28;19929;-67
2022/09/14 11:17:50;;;;;;;;;;;17.80;99.90;;;;;;5042696;28;19925;-67
2022/09/14 11:20:22;;;;;;;;;;;17.70;99.90;;;;;;5068703;28;19929;-67
2022/09/14 11:22:54;;;;;;;;;;;17.60;99.90;;;;;;5045488;28;20448;-67
2022/09/14 11:25:23;;;;;;;;;;;17.60;99.90;;;;;;5050714;28;19928;-68
2022/09/14 11:27:53;;;;;;;;;;;17.60;99.90;;;;;;5052612;28;20383;-67
2022/09/14 11:30:21;;;;;;;;;;;17.60;99.90;;;;;;5048489;28;19989;-67
2022/09/14 11:32:50;;;;;;;;;;;17.70;99.90;;;;;;5069147;28;19936;-67
2022/09/14 11:35:19;;;;;;;;;;;17.70;99.90;;;;;;5065635;28;19932;-67
2022/09/14 11:37:47;;;;;;;;;;;17.80;99.90;;;;;;5054268;28;19924;-67
2022/09/14 11:40:21;;;;;;;;;;;17.70;99.90;;;;;;5066093;28;19932;-67
2022/09/14 11:42:50;;;;;;;;;;;17.60;99.90;;;;;;5072130;28;19964;-67
2022/09/14 11:45:20;;;;;;;;;;;17.50;99.90;;;;;;5053895;28;20501;-67
2022/09/14 11:47:52;;;;;;;;;;;17.60;99.90;;;;;;5042931;28;19932;-67
2022/09/14 11:50:20;;;;;;;;;;;17.60;99.90;;;;;;5059837;28;19924;-67
2022/09/14 11:52:49;;;;;;;;;;;17.50;99.90;;;;;;5048997;28;20400;-67
2022/09/14 11:55:17;;;;;;;;;;;17.40;99.90;;;;;;5044644;28;20012;-67
2022/09/14 11:57:46;;;;;;;;;;;17.40;99.90;;;;;;5042649;28;19972;-67
2022/09/14 12:00:33;;;;;;;;;;;17.40;99.90;;;;;;5071000;28;19928;-67
2022/09/14 12:03:12;;;;;;;;;;;17.30;99.90;;;;;;5061107;28;19929;-65
2022/09/14 12:05:39;;;;;;;;;;;17.20;99.90;;;;;;5054702;28;19932;-66
2022/09/14 12:08:20;;;;;;;;;;;17.10;99.90;;;;;;5049356;28;19931;-67
2022/09/14 12:11:04;;;;;;;;;;;17.10;99.90;;;;;;5036471;28;19975;-67
2022/09/14 12:13:33;;;;;;;;;;;17.10;99.90;;;;;;5048221;28;20441;-67
2022/09/14 12:16:04;;;;;;;;;;;17.00;99.90;;;;;;5051138;28;20440;-67
2022/09/14 12:18:31;;;;;;;;;;;16.90;99.90;;;;;;5054449;28;19925;-68
2022/09/14 12:21:02;;;;;;;;;;;16.80;99.90;;;;;;5046610;28;19935;-67
2022/09/14 12:23:30;;;;;;;;;;;16.70;99.90;;;;;;5051886;28;19925;-66
2022/09/14 12:25:58;;;;;;;;;;;16.70;99.90;;;;;;5045868;28;20306;-67
2022/09/14 12:28:27;;;;;;;;;;;16.70;99.90;;;;;;5040645;28;20299;-67
2022/09/14 12:31:09;;;;;;;;;;;16.70;99.90;;;;;;5035653;28;19978;-67
2022/09/14 12:33:55;;;;;;;;;;;16.70;99.90;;;;;;5046494;28;19932;-67
2022/09/14 12:36:40;;;;;;;;;;;16.70;99.90;;;;;;5051987;28;19973;-66
2022/09/14 12:39:19;;;;;;;;;;;16.70;99.90;;;;;;5042760;28;19925;-67
2022/09/14 12:41:59;;;;;;;;;;;16.70;99.90;;;;;;5047284;28;20382;-67
2022/09/14 12:44:30;;;;;;;;;;;16.70;99.90;;;;;;5064815;28;19924;-66
2022/09/14 12:47:19;;;;;;;;;;;16.80;99.90;;;;;;5047695;28;19928;-67
2022/09/14 12:49:47;;;;;;;;;;;16.90;99.90;;;;;;5058483;28;19924;-67
2022/09/14 12:52:24;;;;;;;;;;;16.90;99.90;;;;;;5042356;28;20342;-67
2022/09/14 12:54:56;;;;;;;;;;;17.00;99.90;;;;;;5047588;28;19929;-67
2022/09/14 12:57:28;;;;;;;;;;;17.00;99.90;;;;;;5043462;28;20370;-67
2022/09/14 13:00:00;;;;;;;;;;;17.00;99.90;;;;;;5048051;28;19929;-66
2022/09/14 13:02:41;;;;;;;;;;;16.90;99.90;;;;;;5046780;28;19925;-67
2022/09/14 13:05:14;;;;;;;;;;;16.80;99.90;;;;;;5047900;28;20640;-67
2022/09/14 13:07:41;;;;;;;;;;;16.70;99.90;;;;;;5047551;28;20387;-66
2022/09/14 13:10:16;;;;;;;;;;;16.60;99.90;;;;;;5048191;28;19932;-67
2022/09/14 13:12:44;;;;;;;;;;;16.60;99.90;;;;;;5046353;28;20058;-67
2022/09/14 13:15:17;;;;;;;;;;;16.60;99.90;;;;;;5045685;28;19974;-67
2022/09/14 13:17:55;;;;;;;;;;;16.80;99.90;;;;;;5047525;28;20325;-67
2022/09/14 13:20:23;;;;;;;;;;;16.90;99.90;;;;;;5039479;28;19928;-67
2022/09/14 13:22:50;;;;;;;;;;;16.80;99.90;;;;;;5044623;28;19924;-67
2022/09/14 13:25:26;;;;;;;;;;;16.70;99.90;;;;;;5065442;28;19932;-67
2022/09/14 13:27:53;;;;;;;;;;;16.50;99.90;;;;;;5045094;28;19993;-67
2022/09/14 13:30:21;;;;;;;;;;;16.30;99.90;;;;;;5039347;28;19925;-67
2022/09/14 13:32:49;;;;;;;;;;;16.20;99.90;;;;;;5043199;28;20019;-67
2022/09/14 13:35:17;;;;;;;;;;;16.10;99.90;;;;;;5040467;28;19924;-67
2022/09/14 13:37:46;;;;;;;;;;;16.10;99.90;;;;;;5046831;28;19924;-67
2022/09/14 13:40:12;;;;;;;;;;;16.10;99.90;;;;;;5046625;28;19925;-67
2022/09/14 13:42:40;;;;;;;;;;;16.00;99.90;;;;;;5045508;28;19935;-67
2022/09/14 13:45:07;;;;;;;;;;;15.90;99.90;;;;;;5050390;28;20321;-67
2022/09/14 13:47:34;;;;;;;;;;;15.90;99.90;;;;;;5043085;28;20306;-67
2022/09/14 13:50:01;;;;;;;;;;;15.80;99.90;;;;;;5044953;28;19925;-66
2022/09/14 13:52:35;;;;;;;;;;;15.80;99.90;;;;;;5041777;28;20264;-67
2022/09/14 13:55:16;;;;;;;;;;;15.80;99.90;;;;;;5044804;28;19925;-67
2022/09/14 13:57:58;;;;;;;;;;;15.80;99.90;;;;;;5070202;28;20356;-67
2022/09/14 14:00:24;;;;;;;;;;;16.00;99.90;;;;;;5045271;28;19925;-67
2022/09/14 14:02:52;;;;;;;;;;;16.30;99.90;;;;;;5064326;28;19925;-67
2022/09/14 14:05:27;;;;;;;;;;;16.40;99.90;;;;;;5044885;28;20325;-67
2022/09/14 14:07:54;;;;;;;;;;;16.50;99.90;;;;;;5069191;28;20459;-67
2022/09/14 14:10:24;;;;;;;;;;;16.50;99.90;;;;;;5079109;28;19925;-67
2022/09/14 14:12:51;;;;;;;;;;;16.60;99.90;;;;;;5048514;28;19924;-67
2022/09/14 14:15:35;;;;;;;;;;;16.60;99.90;;;;;;5076641;28;19933;-67
2022/09/14 14:18:22;;;;;;;;;;;16.60;99.90;;;;;;5043507;28;19925;-67
2022/09/14 14:20:51;;;;;;;;;;;16.60;99.90;;;;;;5045408;28;19929;-67
2022/09/14 14:23:20;;;;;;;;;;;16.50;99.90;;;;;;5038970;28;19933;-69
2022/09/14 14:25:50;;;;;;;;;;;16.50;99.90;;;;;;5044609;28;19932;-66
2022/09/14 14:28:19;;;;;;;;;;;16.40;99.90;;;;;;5046360;28;19975;-67